Observation data for Silverton on 09/24/2020      Previous  Date  Next       Current Mesonet Observations  Soil Data  Daily Summary Page  Observations in Plain Language
KSVS 240500Z 15006KT 16/13 A3007 RMK A01 T01550129  RH  088%=      5-min Rain = 0
KSVS 240505Z 16006KT 15/13 A3007 RMK A01 T01540129  RH  088%=      5-min Rain = 0
KSVS 240510Z 16006KT 15/13 A3007 RMK A01 T01530128  RH  089%=      5-min Rain = 0
KSVS 240515Z 15006KT 15/13 A3007 RMK A01 T01500126  RH  089%=      5-min Rain = 0
KSVS 240520Z 14005KT 15/13 A3007 RMK A01 T01470126  RH  091%=      5-min Rain = 0
KSVS 240525Z 14006KT 15/13 A3007 RMK A01 T01460125  RH  091%=      5-min Rain = 0
KSVS 240530Z 14005KT 15/13 A3007 RMK A01 T01450125  RH  091%=      5-min Rain = 0
KSVS 240535Z 14004KT 15/13 A3007 RMK A01 T01460126  RH  091%=      5-min Rain = 0
KSVS 240540Z 15005KT 15/12 A3007 RMK A01 T01450124  RH  091%=      5-min Rain = 0
KSVS 240545Z 16005KT 15/12 A3007 RMK A01 T01450124  RH  091%=      5-min Rain = 0
KSVS 240550Z 17004KT 14/12 A3007 RMK A01 T01420122  RH  091%=      5-min Rain = 0
KSVS 240555Z 16006KT 15/13 A3007 RMK A01 T01450129  RH  094%=      5-min Rain = 0
KSVS 240600Z 16006KT 14/12 A3007 RMK A01 T01410123  RH  092%=      5-min Rain = 0
KSVS 240605Z 17006KT 15/13 A3007 RMK A01 T01480132  RH  094%=      5-min Rain = 0
KSVS 240610Z 18006KT 16/14 A3007 RMK A01 T01560135  RH  091%=      5-min Rain = 0
KSVS 240615Z 17007KT 15/13 A3007 RMK A01 T01530131  RH  090%=      5-min Rain = 0
KSVS 240620Z 17007KT 15/13 A3007 RMK A01 T01510131  RH  092%=      5-min Rain = 0
KSVS 240625Z 18006KT 15/13 A3006 RMK A01 T01520133  RH  092%=      5-min Rain = 0
KSVS 240630Z 19005KT 15/13 A3006 RMK A01 T01500128  RH  090%=      5-min Rain = 0
KSVS 240635Z 18005KT 14/12 A3006 RMK A01 T01370117  RH  091%=      5-min Rain = 0
KSVS 240640Z 19005KT 13/12 A3006 RMK A01 T01310115  RH  093%=      5-min Rain = 0
KSVS 240645Z 20004KT 13/11 A3006 RMK A01 T01270112  RH  094%=      5-min Rain = 0
KSVS 240650Z 19005KT 13/11 A3006 RMK A01 T01260114  RH  095%=      5-min Rain = 0
KSVS 240655Z 19005KT 13/12 A3006 RMK A01 T01280115  RH  095%=      5-min Rain = 0
KSVS 240700Z 20005KT 12/11 A3006 RMK A01 T01230109  RH  094%=      5-min Rain = 0
KSVS 240705Z 20005KT 12/11 A3006 RMK A01 T01200106  RH  094%=      5-min Rain = 0
KSVS 240710Z 21006KT 12/10 A3006 RMK A01 T01170102  RH  094%=      5-min Rain = 0
KSVS 240715Z 21006KT 12/10 A3006 RMK A01 T01170103  RH  094%=      5-min Rain = 0
KSVS 240720Z 21007KT 12/10 A3006 RMK A01 T01150101  RH  094%=      5-min Rain = 0
KSVS 240725Z 21007KT 12/10 A3006 RMK A01 T01160104  RH  095%=      5-min Rain = 0
KSVS 240730Z 21008KT 12/11 A3006 RMK A01 T01180105  RH  095%=      5-min Rain = 0
KSVS 240735Z 21008KT 12/11 A3005 RMK A01 T01210108  RH  095%=      5-min Rain = 0
KSVS 240740Z 21008KT 12/11 A3005 RMK A01 T01210108  RH  095%=      5-min Rain = 0
KSVS 240745Z 21008KT 12/11 A3005 RMK A01 T01210110  RH  096%=      5-min Rain = 0
KSVS 240750Z 21007KT 12/11 A3005 RMK A01 T01210109  RH  096%=      5-min Rain = 0
KSVS 240755Z 21007KT 12/11 A3005 RMK A01 T01200109  RH  096%=      5-min Rain = 0
KSVS 240800Z 22006KT 12/11 A3005 RMK A01 T01180107  RH  096%=      5-min Rain = 0
KSVS 240805Z 23007KT 11/10 A3005 RMK A01 T01140102  RH  095%=      5-min Rain = 0
KSVS 240810Z 23006KT 11/10 A3005 RMK A01 T01130102  RH  096%=      5-min Rain = 0
KSVS 240815Z 23008KT 11/10 A3005 RMK A01 T01140103  RH  096%=      5-min Rain = 0
KSVS 240820Z 24008KT 12/11 A3004 RMK A01 T01170105  RH  096%=      5-min Rain = 0
KSVS 240825Z 24007KT 12/10 A3004 RMK A01 T01160104  RH  095%=      5-min Rain = 0
KSVS 240830Z 24008KT 11/10 A3004 RMK A01 T01140102  RH  095%=      5-min Rain = 0
KSVS 240835Z 24007KT 12/10 A3004 RMK A01 T01150102  RH  095%=      5-min Rain = 0
KSVS 240840Z 24009KT 12/10 A3004 RMK A01 T01160103  RH  095%=      5-min Rain = 0
KSVS 240845Z 25007KT 11/10 A3004 RMK A01 T01130100  RH  094%=      5-min Rain = 0
KSVS 240850Z 25006KT 11/10 A3004 RMK A01 T01120097  RH  094%=      5-min Rain = 0
KSVS 240855Z 24006KT 11/10 A3004 RMK A01 T01100095  RH  093%=      5-min Rain = 0
KSVS 240900Z 24007KT 11/09 A3003 RMK A01 T01080093  RH  093%=      5-min Rain = 0
KSVS 240905Z 24006KT 11/09 A3003 RMK A01 T01060093  RH  094%=      5-min Rain = 0
KSVS 240910Z 25006KT 11/09 A3003 RMK A01 T01050093  RH  095%=      5-min Rain = 0
KSVS 240915Z 25006KT 11/09 A3004 RMK A01 T01060094  RH  095%=      5-min Rain = 0
KSVS 240920Z 24006KT 11/10 A3004 RMK A01 T01080096  RH  095%=      5-min Rain = 0
KSVS 240925Z 24008KT 11/10 A3003 RMK A01 T01070095  RH  095%=      5-min Rain = 0
KSVS 240930Z 24007KT 11/10 A3003 RMK A01 T01070096  RH  096%=      5-min Rain = 0
KSVS 240935Z 24006KT 11/10 A3004 RMK A01 T01080097  RH  096%=      5-min Rain = 0
KSVS 240940Z 25007KT 11/10 A3004 RMK A01 T01080097  RH  096%=      5-min Rain = 0
KSVS 240945Z 26006KT 11/10 A3004 RMK A01 T01080096  RH  095%=      5-min Rain = 0
KSVS 240950Z 25007KT 11/10 A3004 RMK A01 T01090098  RH  096%=      5-min Rain = 0
KSVS 240955Z 25005KT 11/10 A3004 RMK A01 T01120101  RH  096%=      5-min Rain = 0
KSVS 241000Z 25006KT 12/10 A3004 RMK A01 T01150104  RH  096%=      5-min Rain = 0
KSVS 241005Z 25007KT 12/11 A3004 RMK A01 T01160105  RH  096%=      5-min Rain = 0
KSVS 241010Z 25007KT 12/11 A3004 RMK A01 T01160105  RH  096%=      5-min Rain = 0
KSVS 241015Z 25008KT 12/11 A3004 RMK A01 T01170106  RH  096%=      5-min Rain = 0
KSVS 241020Z 24007KT 12/11 A3004 RMK A01 T01170106  RH  096%=      5-min Rain = 0
KSVS 241025Z 24006KT 12/11 A3003 RMK A01 T01170105  RH  096%=      5-min Rain = 0
KSVS 241030Z 24007KT 11/10 A3003 RMK A01 T01140103  RH  096%=      5-min Rain = 0
KSVS 241035Z 24008KT 11/10 A3003 RMK A01 T01140104  RH  097%=      5-min Rain = 0
KSVS 241040Z 24008KT 12/11 A3003 RMK A01 T01150106  RH  097%=      5-min Rain = 0
KSVS 241045Z 24008KT 12/11 A3003 RMK A01 T01160106  RH  097%=      5-min Rain = 0
KSVS 241050Z 24008KT 12/11 A3003 RMK A01 T01160107  RH  097%=      5-min Rain = 0
KSVS 241055Z 24009KT 12/11 A3003 RMK A01 T01190111  RH  098%=      5-min Rain = 0
KSVS 241100Z 24009KT 12/11 A3003 RMK A01 T01220114  RH  098%=      5-min Rain = 0
KSVS 241105Z 24009KT 12/12 A3003 RMK A01 T01240116  RH  098%=      5-min Rain = 0
KSVS 241110Z 23009KT 13/12 A3003 RMK A01 T01270119  RH  098%=      5-min Rain = 0
KSVS 241115Z 23008KT 13/12 A3003 RMK A01 T01270119  RH  098%=      5-min Rain = 0
KSVS 241120Z 23008KT 13/12 A3003 RMK A01 T01280120  RH  098%=      5-min Rain = 0
KSVS 241125Z 23006KT 13/12 A3003 RMK A01 T01270119  RH  098%=      5-min Rain = 0
KSVS 241130Z 24005KT 13/12 A3004 RMK A01 T01260118  RH  098%=      5-min Rain = 0
KSVS 241135Z 24005KT 13/12 A3004 RMK A01 T01250117  RH  098%=      5-min Rain = 0
KSVS 241140Z 24006KT 12/12 A3004 RMK A01 T01240116  RH  098%=      5-min Rain = 0
KSVS 241145Z 25006KT 12/11 A3004 RMK A01 T01220114  RH  098%=      5-min Rain = 0
KSVS 241150Z 25006KT 12/11 A3004 RMK A01 T01200111  RH  098%=      5-min Rain = 0
KSVS 241155Z 26007KT 12/11 A3004 RMK A01 T01190110  RH  098%=      5-min Rain = 0
KSVS 241200Z 26007KT 12/11 A3004 RMK A01 T01180109  RH  098%=      5-min Rain = 0
KSVS 241205Z 26007KT 12/11 A3004 RMK A01 T01180110  RH  098%=      5-min Rain = 0
KSVS 241210Z 26008KT 12/11 A3004 RMK A01 T01180109  RH  097%=      5-min Rain = 0
KSVS 241215Z 25008KT 12/11 A3004 RMK A01 T01190110  RH  098%=      5-min Rain = 0
KSVS 241220Z 26008KT 12/11 A3005 RMK A01 T01180109  RH  097%=      5-min Rain = 0
KSVS 241225Z 26007KT 12/11 A3005 RMK A01 T01170107  RH  097%=      5-min Rain = 0
KSVS 241230Z 26007KT 12/10 A3005 RMK A01 T01150104  RH  096%=      5-min Rain = 0
KSVS 241235Z 26007KT 11/10 A3005 RMK A01 T01120101  RH  096%=      5-min Rain = 0
KSVS 241240Z 26008KT 11/10 A3005 RMK A01 T01120101  RH  096%=      5-min Rain = 0
KSVS 241245Z 25008KT 11/10 A3005 RMK A01 T01130102  RH  096%=      5-min Rain = 0
KSVS 241250Z 25009KT 12/11 A3005 RMK A01 T01160105  RH  096%=      5-min Rain = 0
KSVS 241255Z 24009KT 12/11 A3005 RMK A01 T01170106  RH  096%=      5-min Rain = 0
KSVS 241300Z 24008KT 12/11 A3005 RMK A01 T01180106  RH  096%=      5-min Rain = 0
KSVS 241305Z 25008KT 12/11 A3005 RMK A01 T01180107  RH  096%=      5-min Rain = 0
KSVS 241310Z 25008KT 12/11 A3005 RMK A01 T01210109  RH  096%=      5-min Rain = 0
KSVS 241315Z 25008KT 12/11 A3005 RMK A01 T01230111  RH  096%=      5-min Rain = 0
KSVS 241320Z 25008KT 13/11 A3006 RMK A01 T01250113  RH  095%=      5-min Rain = 0
KSVS 241325Z 25008KT 13/11 A3006 RMK A01 T01280114  RH  095%=      5-min Rain = 0
KSVS 241330Z 25008KT 13/12 A3006 RMK A01 T01310117  RH  094%=      5-min Rain = 0
KSVS 241335Z 25008KT 14/12 A3006 RMK A01 T01360119  RH  093%=      5-min Rain = 0
KSVS 241340Z 25009KT 14/12 A3006 RMK A01 T01400122  RH  092%=      5-min Rain = 0
KSVS 241345Z 25009KT 15/13 A3006 RMK A01 T01460125  RH  091%=      5-min Rain = 0
KSVS 241350Z 25010KT 15/13 A3006 RMK A01 T01520127  RH  088%=      5-min Rain = 0
KSVS 241355Z 25012KT 16/13 A3006 RMK A01 T01550126  RH  086%=      5-min Rain = 0
KSVS 241400Z 25011KT 16/13 A3006 RMK A01 T01580127  RH  085%=      5-min Rain = 0
KSVS 241405Z 25011KT 16/13 A3006 RMK A01 T01610126  RH  083%=      5-min Rain = 0
KSVS 241410Z 25011KT 17/13 A3006 RMK A01 T01650128  RH  082%=      5-min Rain = 0
KSVS 241415Z 25011KT 17/13 A3006 RMK A01 T01690128  RH  080%=      5-min Rain = 0
KSVS 241420Z 25011KT 17/13 A3006 RMK A01 T01740130  RH  078%=      5-min Rain = 0
KSVS 241425Z 25011KT 18/13 A3007 RMK A01 T01770130  RH  077%=      5-min Rain = 0
KSVS 241430Z 25012KT 18/13 A3007 RMK A01 T01820131  RH  075%=      5-min Rain = 0
KSVS 241435Z 25012KT 19/13 A3007 RMK A01 T01870132  RH  074%=      5-min Rain = 0
KSVS 241440Z 25012KT 19/13 A3007 RMK A01 T01920134  RH  072%=      5-min Rain = 0
KSVS 241445Z 24013KT 20/13 A3007 RMK A01 T01960134  RH  070%=      5-min Rain = 0
KSVS 241450Z 24013KT 20/14 A3007 RMK A01 T01990135  RH  069%=      5-min Rain = 0
KSVS 241455Z 25013KT 20/14 A3007 RMK A01 T02020135  RH  068%=      5-min Rain = 0
KSVS 241500Z 25013KT 21/14 A3007 RMK A01 T02050135  RH  067%=      5-min Rain = 0
KSVS 241505Z 25013KT 21/14 A3007 RMK A01 T02100136  RH  065%=      5-min Rain = 0
KSVS 241510Z 25013KT 21/14 A3007 RMK A01 T02140136  RH  064%=      5-min Rain = 0
KSVS 241515Z 25012KT 22/14 A3007 RMK A01 T02190137  RH  062%=      5-min Rain = 0
KSVS 241520Z 26013KT 22/14 A3007 RMK A01 T02240138  RH  060%=      5-min Rain = 0
KSVS 241525Z 25012KT 23/14 A3008 RMK A01 T02290138  RH  059%=      5-min Rain = 0
KSVS 241530Z 26012KT 23/14 A3008 RMK A01 T02330138  RH  058%=      5-min Rain = 0
KSVS 241535Z 26012KT 24/14 A3008 RMK A01 T02380138  RH  056%=      5-min Rain = 0
KSVS 241540Z 26013KT 24/14 A3008 RMK A01 T02410136  RH  054%=      5-min Rain = 0
KSVS 241545Z 26013KT 24/14 A3008 RMK A01 T02440136  RH  053%=      5-min Rain = 0
KSVS 241550Z 26011KT 25/14 A3008 RMK A01 T02480136  RH  052%=      5-min Rain = 0
KSVS 241555Z 26010KT 25/14 A3008 RMK A01 T02500135  RH  051%=      5-min Rain = 0
KSVS 241600Z 27010G16KT 26/13 A3007 RMK A01 T02560134  RH  049%=      5-min Rain = 0
KSVS 241605Z 25011KT 26/13 A3007 RMK A01 T02580134  RH  048%=      5-min Rain = 0
KSVS 241610Z 26010KT 26/13 A3007 RMK A01 T02590133  RH  047%=      5-min Rain = 0
KSVS 241615Z 26009G14KT 26/13 A3007 RMK A01 T02620133  RH  047%=      5-min Rain = 0
KSVS 241620Z 25009KT 27/13 A3007 RMK A01 T02650132  RH  046%=      5-min Rain = 0
KSVS 241625Z 25009KT 27/13 A3007 RMK A01 T02700132  RH  044%=      5-min Rain = 0
KSVS 241630Z 25009KT 28/13 A3007 RMK A01 T02750131  RH  043%=      5-min Rain = 0
KSVS 241635Z 25009KT 27/13 A3007 RMK A01 T02730128  RH  042%=      5-min Rain = 0
KSVS 241640Z 25009KT 28/13 A3006 RMK A01 T02800129  RH  041%=      5-min Rain = 0
KSVS 241645Z 26009G15KT 28/13 A3006 RMK A01 T02810126  RH  040%=      5-min Rain = 0
KSVS 241650Z 25009KT 28/13 A3006 RMK A01 T02820125  RH  039%=      5-min Rain = 0
KSVS 241655Z 26009KT 29/12 A3006 RMK A01 T02860124  RH  038%=      5-min Rain = 0
KSVS 241700Z 25009KT 29/12 A3006 RMK A01 T02880122  RH  037%=      5-min Rain = 0
KSVS 241705Z 25009KT 29/12 A3006 RMK A01 T02900120  RH  036%=      5-min Rain = 0
KSVS 241710Z 26008KT 29/12 A3006 RMK A01 T02910118  RH  036%=      5-min Rain = 0
KSVS 241715Z 27008KT 30/11 A3005 RMK A01 T02950114  RH  034%=      5-min Rain = 0
KSVS 241720Z 27010KT 30/10 A3005 RMK A01 T02980103  RH  031%=      5-min Rain = 0
KSVS 241725Z 27010G15KT 30/09 A3005 RMK A01 T03000093  RH  029%=      5-min Rain = 0
KSVS 241730Z 26008G13KT 30/09 A3005 RMK A01 T03020087  RH  027%=      5-min Rain = 0
KSVS 241735Z 26008G13KT 31/10 A3005 RMK A01 T03050096  RH  028%=      5-min Rain = 0
KSVS 241740Z 27008KT 31/07 A3005 RMK A01 T03090068  RH  023%=      5-min Rain = 0
KSVS 241745Z 26008KT 31/07 A3004 RMK A01 T03070074  RH  024%=      5-min Rain = 0
KSVS 241750Z 26007G12KT 31/07 A3004 RMK A01 T03100071  RH  023%=      5-min Rain = 0
KSVS 241755Z 25007G12KT 31/06 A3004 RMK A01 T03140061  RH  021%=      5-min Rain = 0
KSVS 241800Z 24006KT 31/07 A3004 RMK A01 T03130068  RH  022%=      5-min Rain = 0
KSVS 241805Z 31007G13KT 32/07 A3004 RMK A01 T03150072  RH  022%=      5-min Rain = 0
KSVS 241810Z 29008G13KT 32/07 A3004 RMK A01 T03170068  RH  022%=      5-min Rain = 0
KSVS 241815Z 31007KT 32/06 A3004 RMK A01 T03150062  RH  021%=      5-min Rain = 0
KSVS 241820Z 28008KT 32/06 A3003 RMK A01 T03150062  RH  021%=      5-min Rain = 0
KSVS 241825Z 25005KT 31/07 A3003 RMK A01 T03110066  RH  022%=      5-min Rain = 0
KSVS 241830Z 24005G10KT 32/06 A3003 RMK A01 T03170063  RH  021%=      5-min Rain = 0
KSVS 241835Z 26008KT 32/06 A3003 RMK A01 T03180063  RH  021%=      5-min Rain = 0
KSVS 241840Z 22007G12KT 32/06 A3003 RMK A01 T03180063  RH  021%=      5-min Rain = 0
KSVS 241845Z 22005KT 32/06 A3002 RMK A01 T03180060  RH  020%=      5-min Rain = 0
KSVS 241850Z 24007G12KT 33/06 A3002 RMK A01 T03250056  RH  019%=      5-min Rain = 0
KSVS 241855Z 26007G13KT 32/06 A3002 RMK A01 T03200059  RH  020%=      5-min Rain = 0
KSVS 241900Z 23004KT 32/06 A3002 RMK A01 T03210059  RH  020%=      5-min Rain = 0
KSVS 241905Z 31006G11KT 32/06 A3001 RMK A01 T03230060  RH  020%=      5-min Rain = 0
KSVS 241910Z 32010G15KT 33/06 A3001 RMK A01 T03290056  RH  019%=      5-min Rain = 0
KSVS 241915Z 34008KT 33/05 A3001 RMK A01 T03260053  RH  019%=      5-min Rain = 0
KSVS 241920Z 03004KT 32/06 A3001 RMK A01 T03200055  RH  019%=      5-min Rain = 0
KSVS 241925Z 28006KT 32/05 A30 RMK A01 T03240050  RH  018%=      5-min Rain = 0
KSVS 241930Z 33003KT 33/05 A30 RMK A01 T03250049  RH  018%=      5-min Rain = 0
KSVS 241935Z 22001KT 32/05 A30 RMK A01 T03240048  RH  018%=      5-min Rain = 0
KSVS 241940Z 23005KT 33/05 A2999 RMK A01 T03300050  RH  018%=      5-min Rain = 0
KSVS 241945Z 27008G15KT 34/05 A2999 RMK A01 T03350045  RH  017%=      5-min Rain = 0
KSVS 241950Z 27007KT 33/04 A2999 RMK A01 T03290042  RH  017%=      5-min Rain = 0
KSVS 241955Z 28005KT 33/04 A2999 RMK A01 T03280044  RH  017%=      5-min Rain = 0
KSVS 242000Z 30003KT 33/04 A2998 RMK A01 T03250042  RH  017%=      5-min Rain = 0
KSVS 242005Z 26004KT 33/04 A2998 RMK A01 T03300043  RH  017%=      5-min Rain = 0
KSVS 242010Z 23004G10KT 33/04 A2998 RMK A01 T03320041  RH  016%=      5-min Rain = 0
KSVS 242015Z 21004KT 33/04 A2998 RMK A01 T03310041  RH  017%=      5-min Rain = 0
KSVS 242020Z 33001KT 33/04 A2998 RMK A01 T03330041  RH  016%=      5-min Rain = 0
KSVS 242025Z 27007G12KT 34/04 A2998 RMK A01 T03370041  RH  016%=      5-min Rain = 0
KSVS 242030Z 25008G15KT 33/04 A2998 RMK A01 T03320038  RH  016%=      5-min Rain = 0
KSVS 242035Z 21005G10KT 33/04 A2997 RMK A01 T03330038  RH  016%=      5-min Rain = 0
KSVS 242040Z 22005KT 34/04 A2997 RMK A01 T03350036  RH  016%=      5-min Rain = 0
KSVS 242045Z 24005KT 34/04 A2997 RMK A01 T03390035  RH  015%=      5-min Rain = 0
KSVS 242050Z 28007KT 34/03 A2997 RMK A01 T03380032  RH  015%=      5-min Rain = 0
KSVS 242055Z 24008G13KT 34/03 A2997 RMK A01 T03390033  RH  015%=      5-min Rain = 0
KSVS 242100Z 25006G14KT 33/03 A2996 RMK A01 T03340031  RH  015%=      5-min Rain = 0
KSVS 242105Z 25007G12KT 34/03 A2996 RMK A01 T03360030  RH  015%=      5-min Rain = 0
KSVS 242110Z 22007G14KT 34/03 A2996 RMK A01 T03420029  RH  014%=      5-min Rain = 0
KSVS 242115Z 21007G12KT 34/03 A2996 RMK A01 T03370027  RH  014%=      5-min Rain = 0
KSVS 242120Z 23005G13KT 34/03 A2996 RMK A01 T03360027  RH  014%=      5-min Rain = 0
KSVS 242125Z 22004G12KT 34/02 A2996 RMK A01 T03350020  RH  014%=      5-min Rain = 0
KSVS 242130Z 24005KT 34/02 A2996 RMK A01 T03350018  RH  014%=      5-min Rain = 0
KSVS 242135Z 25006KT 34/02 A2996 RMK A01 T03370024  RH  014%=      5-min Rain = 0
KSVS 242140Z 24002KT 34/02 A2996 RMK A01 T03360024  RH  014%=      5-min Rain = 0
KSVS 242145Z 27006KT 34/02 A2996 RMK A01 T03370022  RH  014%=      5-min Rain = 0
KSVS 242150Z 26004KT 34/02 A2996 RMK A01 T03360020  RH  014%=      5-min Rain = 0
KSVS 242155Z 22004KT 34/02 A2996 RMK A01 T03380017  RH  013%=      5-min Rain = 0
KSVS 242200Z 24005G11KT 34/02 A2996 RMK A01 T03380015  RH  013%=      5-min Rain = 0
KSVS 242205Z 27005KT 34/01 A2995 RMK A01 T03390013  RH  013%=      5-min Rain = 0
KSVS 242210Z 29005KT 34/02 A2995 RMK A01 T03380015  RH  013%=      5-min Rain = 0
KSVS 242215Z 29003KT 34/02 A2995 RMK A01 T03390015  RH  013%=      5-min Rain = 0
KSVS 242220Z 24007KT 34/02 A2995 RMK A01 T03410017  RH  013%=      5-min Rain = 0
KSVS 242225Z 25005KT 33/02 A2995 RMK A01 T03340016  RH  014%=      5-min Rain = 0
KSVS 242230Z 27005G10KT 34/02 A2995 RMK A01 T03380018  RH  013%=      5-min Rain = 0
KSVS 242235Z 27006KT 34/02 A2995 RMK A01 T03390018  RH  013%=      5-min Rain = 0
KSVS 242240Z 28005KT 34/02 A2995 RMK A01 T03350016  RH  013%=      5-min Rain = 0
KSVS 242245Z 29004KT 34/02 A2995 RMK A01 T03350015  RH  013%=      5-min Rain = 0
KSVS 242250Z 27004KT 33/02 A2995 RMK A01 T03340018  RH  014%=      5-min Rain = 0
KSVS 242255Z 29008KT 34/02 A2995 RMK A01 T03350019  RH  014%=      5-min Rain = 0
KSVS 242300Z 30004G9KT 33/02 A2995 RMK A01 T03340016  RH  014%=      5-min Rain = 0
KSVS 242305Z 28007KT 33/02 A2995 RMK A01 T03340017  RH  014%=      5-min Rain = 0
KSVS 242310Z 28006KT 33/02 A2995 RMK A01 T03310016  RH  014%=      5-min Rain = 0
KSVS 242315Z 30003KT 33/02 A2995 RMK A01 T03310016  RH  014%=      5-min Rain = 0
KSVS 242320Z 24006KT 33/02 A2995 RMK A01 T03320018  RH  014%=      5-min Rain = 0
KSVS 242325Z 22005KT 33/02 A2995 RMK A01 T03290018  RH  014%=      5-min Rain = 0
KSVS 242330Z 21005KT 33/02 A2995 RMK A01 T03280018  RH  014%=      5-min Rain = 0
KSVS 242335Z 22005KT 33/02 A2995 RMK A01 T03260018  RH  014%=      5-min Rain = 0
KSVS 242340Z 20003KT 33/02 A2995 RMK A01 T03250018  RH  014%=      5-min Rain = 0
KSVS 242345Z 21003KT 32/02 A2995 RMK A01 T03230018  RH  015%=      5-min Rain = 0
KSVS 242350Z 22004KT 32/02 A2995 RMK A01 T03180020  RH  015%=      5-min Rain = 0
KSVS 242355Z 22004KT 31/02 A2995 RMK A01 T03140022  RH  016%=      5-min Rain = 0
KSVS 250000Z 22004KT 31/02 A2995 RMK A01 T03080022  RH  016%=      5-min Rain = 0
KSVS 250005Z 23005KT 30/02 A2995 RMK A01 T03040023  RH  017%=      5-min Rain = 0
KSVS 250010Z 22005KT 30/03 A2995 RMK A01 T02950025  RH  018%=      5-min Rain = 0
KSVS 250015Z 22006KT 29/03 A2995 RMK A01 T02900028  RH  019%=      5-min Rain = 0
KSVS 250020Z 21005KT 28/03 A2995 RMK A01 T02820030  RH  020%=      5-min Rain = 0
KSVS 250025Z 20006KT 28/03 A2995 RMK A01 T02830028  RH  020%=      5-min Rain = 0
KSVS 250030Z 21006KT 28/03 A2995 RMK A01 T02830027  RH  020%=      5-min Rain = 0
KSVS 250035Z 22006KT 28/03 A2995 RMK A01 T02750028  RH  021%=      5-min Rain = 0
KSVS 250040Z 21007KT 27/03 A2995 RMK A01 T02720027  RH  021%=      5-min Rain = 0
KSVS 250045Z 21009KT 26/03 A2995 RMK A01 T02630026  RH  022%=      5-min Rain = 0
KSVS 250050Z 21008KT 25/03 A2995 RMK A01 T02480026  RH  024%=      5-min Rain = 0
KSVS 250055Z 21009KT 24/03 A2995 RMK A01 T02400027  RH  025%=      5-min Rain = 0
KSVS 250100Z 20008KT 25/03 A2995 RMK A01 T02450025  RH  024%=      5-min Rain = 0
KSVS 250105Z 20008KT 26/02 A2995 RMK A01 T02550023  RH  022%=      5-min Rain = 0
KSVS 250110Z 19008KT 25/02 A2995 RMK A01 T02530020  RH  022%=      5-min Rain = 0
KSVS 250115Z 20009KT 27/02 A2995 RMK A01 T02700018  RH  020%=      5-min Rain = 0
KSVS 250120Z 20009KT 27/02 A2995 RMK A01 T02710019  RH  020%=      5-min Rain = 0
KSVS 250125Z 19008KT 27/02 A2995 RMK A01 T02660019  RH  021%=      5-min Rain = 0
KSVS 250130Z 19007KT 25/02 A2995 RMK A01 T02540021  RH  022%=      5-min Rain = 0
KSVS 250135Z 11005KT 23/02 A2995 RMK A01 T02300017  RH  025%=      5-min Rain = 0
KSVS 250140Z 12006KT 23/02 A2996 RMK A01 T02320018  RH  025%=      5-min Rain = 0
KSVS 250145Z 12007KT 25/02 A2996 RMK A01 T02480023  RH  023%=      5-min Rain = 0
KSVS 250150Z 12006KT 24/02 A2996 RMK A01 T02390024  RH  025%=      5-min Rain = 0
KSVS 250155Z 13006KT 24/03 A2996 RMK A01 T02350028  RH  026%=      5-min Rain = 0
KSVS 250200Z 14007KT 24/03 A2996 RMK A01 T02380033  RH  027%=      5-min Rain = 0
KSVS 250205Z 15007KT 24/04 A2996 RMK A01 T02380042  RH  029%=      5-min Rain = 0
KSVS 250210Z 15007KT 24/05 A2996 RMK A01 T02380047  RH  030%=      5-min Rain = 0
KSVS 250215Z 15007KT 23/05 A2996 RMK A01 T02330049  RH  031%=      5-min Rain = 0
KSVS 250220Z 15008KT 23/05 A2996 RMK A01 T02290048  RH  032%=      5-min Rain = 0
KSVS 250225Z 15007KT 24/05 A2996 RMK A01 T02350045  RH  030%=      5-min Rain = 0
KSVS 250230Z 16006KT 23/04 A2996 RMK A01 T02290044  RH  031%=      5-min Rain = 0
KSVS 250235Z 16006KT 22/04 A2996 RMK A01 T02240044  RH  031%=      5-min Rain = 0
KSVS 250240Z 15008KT 22/04 A2996 RMK A01 T02220044  RH  032%=      5-min Rain = 0
KSVS 250245Z 15008KT 22/04 A2997 RMK A01 T02170044  RH  033%=      5-min Rain = 0
KSVS 250250Z 16008KT 22/04 A2997 RMK A01 T02170042  RH  032%=      5-min Rain = 0
KSVS 250255Z 16008KT 21/04 A2997 RMK A01 T02130040  RH  033%=      5-min Rain = 0
KSVS 250300Z 15008KT 22/04 A2997 RMK A01 T02160040  RH  032%=      5-min Rain = 0
KSVS 250305Z 16009KT 22/04 A2997 RMK A01 T02190038  RH  031%=      5-min Rain = 0
KSVS 250310Z 16009KT 22/04 A2997 RMK A01 T02220036  RH  030%=      5-min Rain = 0
KSVS 250315Z 15009KT 22/04 A2997 RMK A01 T02220036  RH  030%=      5-min Rain = 0
KSVS 250320Z 16012KT 23/04 A2997 RMK A01 T02250036  RH  029%=      5-min Rain = 0
KSVS 250325Z 17013KT 24/04 A2998 RMK A01 T02370040  RH  028%=      5-min Rain = 0
KSVS 250330Z 17012KT 24/05 A2998 RMK A01 T02400048  RH  029%=      5-min Rain = 0
KSVS 250335Z 17010KT 23/05 A2998 RMK A01 T02330047  RH  031%=      5-min Rain = 0
KSVS 250340Z 18009KT 23/05 A2998 RMK A01 T02270051  RH  032%=      5-min Rain = 0
KSVS 250345Z 18009KT 22/06 A2998 RMK A01 T02240057  RH  035%=      5-min Rain = 0
KSVS 250350Z 18008KT 22/06 A2998 RMK A01 T02190061  RH  037%=      5-min Rain = 0
KSVS 250355Z 19008KT 22/07 A2998 RMK A01 T02200065  RH  038%=      5-min Rain = 0
KSVS 250400Z 19008KT 22/07 A2998 RMK A01 T02180067  RH  038%=      5-min Rain = 0
KSVS 250405Z 19008KT 22/07 A2998 RMK A01 T02180070  RH  039%=      5-min Rain = 0
KSVS 250410Z 19008KT 22/07 A2998 RMK A01 T02160073  RH  041%=      5-min Rain = 0
KSVS 250415Z 19009KT 22/08 A2998 RMK A01 T02170078  RH  042%=      5-min Rain = 0
KSVS 250420Z 20010KT 22/08 A2998 RMK A01 T02170083  RH  043%=      5-min Rain = 0
KSVS 250425Z 20010KT 22/09 A2998 RMK A01 T02200087  RH  044%=      5-min Rain = 0
KSVS 250430Z 20010KT 22/09 A2998 RMK A01 T02220088  RH  043%=      5-min Rain = 0
KSVS 250435Z 20011KT 22/09 A2997 RMK A01 T02220087  RH  043%=      5-min Rain = 0
KSVS 250440Z 20010KT 22/08 A2997 RMK A01 T02180084  RH  044%=      5-min Rain = 0
KSVS 250445Z 20010KT 21/08 A2997 RMK A01 T02140081  RH  044%=      5-min Rain = 0
KSVS 250450Z 20010KT 21/08 A2997 RMK A01 T02110080  RH  044%=      5-min Rain = 0
KSVS 250455Z 21009KT 21/08 A2997 RMK A01 T02070077  RH  044%=      5-min Rain = 0

Page generated in 0.0092 seconds.